Time;durP1;ratioP1;P1;durP2;ratioP2;P2;SDS_P1;SDS_P2;PMS_P1;PMS_P2;Temp;Humidity;BMP_temperature;BMP_pressure;BME280_temperature;BME280_humidity;BME280_pressure;Samples;Min_cycle;Max_cycle;Signal;HPM_P1;HPM_P2
2024/03/02 00:01:10;;;;;;;1.55;1.10;;;5.70;99.90;;;;;;5032383;28;20105;-51
2024/03/02 00:03:37;;;;;;;2.30;1.48;;;5.80;99.90;;;;;;5032796;28;20491;-51
2024/03/02 00:06:03;;;;;;;3.40;1.33;;;5.70;99.90;;;;;;5032762;28;20495;-53
2024/03/02 00:08:29;;;;;;;6.88;1.38;;;5.70;99.90;;;;;;5030769;28;20065;-50
2024/03/02 00:11:00;;;;;;;2.60;1.17;;;5.70;99.90;;;;;;5029288;28;20037;-53
2024/03/02 00:13:26;;;;;;;1.38;1.08;;;5.70;99.90;;;;;;5025950;28;20374;-50
2024/03/02 00:15:53;;;;;;;3.67;1.13;;;5.70;99.90;;;;;;5028468;28;20037;-50
2024/03/02 00:18:30;;;;;;;1.00;0.90;;;5.80;99.90;;;;;;5024116;28;20462;-50
2024/03/02 00:20:57;;;;;;;1.95;1.08;;;5.70;99.90;;;;;;5019052;28;20097;-51
2024/03/02 00:23:24;;;;;;;4.07;1.17;;;5.70;99.90;;;;;;5024201;28;20117;-53
2024/03/02 00:25:53;;;;;;;2.17;1.25;;;5.70;99.90;;;;;;4998374;28;20428;-49
2024/03/02 00:28:29;;;;;;;2.05;1.05;;;5.70;99.90;;;;;;5020403;28;20039;-56
2024/03/02 00:31:04;;;;;;;1.90;1.10;;;5.80;99.90;;;;;;5028824;28;20026;-49
2024/03/02 00:33:35;;;;;;;2.25;1.48;;;5.80;99.90;;;;;;5018791;28;20080;-52
2024/03/02 00:36:05;;;;;;;1.75;1.00;;;5.80;99.90;;;;;;5019655;28;20049;-51
2024/03/02 00:38:31;;;;;;;2.25;1.27;;;5.80;99.90;;;;;;5025008;28;20033;-50
2024/03/02 00:41:05;;;;;;;2.50;1.00;;;5.90;99.90;;;;;;5021653;28;20348;-52
2024/03/02 00:43:43;;;;;;;2.92;1.58;;;6.00;99.90;;;;;;5023693;28;20032;-53
2024/03/02 00:46:19;;;;;;;2.28;1.13;;;6.00;99.90;;;;;;5014106;28;20022;-52
2024/03/02 00:48:52;;;;;;;2.08;1.23;;;6.10;99.90;;;;;;5022049;28;20032;-50
2024/03/02 00:51:18;;;;;;;2.88;1.00;;;6.20;99.90;;;;;;5024855;28;20041;-52
2024/03/02 00:53:44;;;;;;;3.17;1.10;;;6.30;99.90;;;;;;5014833;28;20105;-49
2024/03/02 00:56:11;;;;;;;2.92;1.52;;;6.30;99.90;;;;;;5016680;28;20030;-50
2024/03/02 00:58:38;;;;;;;2.25;0.98;;;6.40;99.90;;;;;;5015780;28;20040;-50
2024/03/02 01:01:03;;;;;;;5.43;1.10;;;6.50;99.90;;;;;;5015573;28;20032;-53
2024/03/02 01:03:31;;;;;;;4.00;2.20;;;6.40;99.90;;;;;;5019894;28;20022;-51
2024/03/02 01:05:56;;;;;;;3.58;1.20;;;6.40;99.90;;;;;;5015668;28;20125;-52
2024/03/02 01:08:22;;;;;;;1.85;1.20;;;6.40;99.90;;;;;;5018023;28;20064;-52
2024/03/02 01:10:47;;;;;;;2.53;0.95;;;6.30;99.90;;;;;;5004346;28;20072;-55
2024/03/02 01:13:13;;;;;;;5.97;1.10;;;6.30;99.90;;;;;;5021190;28;20017;-51
2024/03/02 01:15:39;;;;;;;2.72;1.20;;;6.30;99.90;;;;;;5024717;28;20095;-50
2024/03/02 01:18:04;;;;;;;1.55;0.73;;;6.30;99.90;;;;;;5025995;28;20484;-53
2024/03/02 01:20:30;;;;;;;1.63;0.90;;;6.30;99.90;;;;;;5026579;28;20037;-49
2024/03/02 01:22:55;;;;;;;5.78;1.23;;;6.30;99.90;;;;;;5016851;28;20087;-53
2024/03/02 01:25:21;;;;;;;2.28;1.02;;;6.40;99.90;;;;;;5029926;28;20033;-52
2024/03/02 01:27:46;;;;;;;2.13;1.20;;;6.40;99.90;;;;;;5020420;28;20060;-53
2024/03/02 01:30:12;;;;;;;1.88;1.00;;;6.40;99.90;;;;;;5026738;28;20026;-49
2024/03/02 01:32:38;;;;;;;2.53;1.38;;;6.40;99.90;;;;;;5026435;28;20022;-51
2024/03/02 01:35:04;;;;;;;10.63;1.25;;;6.30;99.90;;;;;;5025862;28;20029;-51
2024/03/02 01:37:30;;;;;;;2.08;1.17;;;6.30;99.90;;;;;;5010138;28;20399;-51
2024/03/02 01:39:56;;;;;;;3.67;1.45;;;6.20;99.90;;;;;;5026204;28;20025;-50
2024/03/02 01:42:22;;;;;;;2.05;1.10;;;6.10;99.90;;;;;;5025435;28;20033;-53
2024/03/02 01:44:47;;;;;;;2.55;1.15;;;6.00;99.90;;;;;;5027756;28;20021;-49
2024/03/02 01:47:13;;;;;;;2.95;1.25;;;6.00;99.90;;;;;;5027023;28;20052;-49
2024/03/02 01:49:40;;;;;;;2.53;1.10;;;6.00;99.90;;;;;;5033127;28;20036;-53
2024/03/02 01:52:06;;;;;;;3.53;1.00;;;5.90;99.90;;;;;;5029744;28;20033;-49
2024/03/02 01:54:32;;;;;;;3.08;1.30;;;6.00;99.90;;;;;;5025756;28;20549;-49
2024/03/02 01:56:58;;;;;;;2.35;0.98;;;6.00;99.90;;;;;;5028400;28;20198;-52
2024/03/02 01:59:24;;;;;;;2.33;1.50;;;6.10;99.90;;;;;;5030601;28;20021;-50
2024/03/02 02:01:49;;;;;;;2.40;1.30;;;6.20;99.90;;;;;;5031223;28;20120;-50
2024/03/02 02:06:48;;;;;;;;;;;6.30;99.90;;;;;;5034630;28;20072;-51
2024/03/02 02:09:14;;;;;;;5.13;1.13;;;6.30;99.90;;;;;;5034205;28;20453;-54
2024/03/02 02:11:39;;;;;;;3.60;1.08;;;6.30;99.90;;;;;;5032994;28;20084;-50
2024/03/02 02:14:06;;;;;;;3.65;0.90;;;6.30;99.90;;;;;;5029627;28;20029;-50
2024/03/02 02:16:31;;;;;;;3.17;1.33;;;6.20;99.90;;;;;;5026252;28;20052;-50
2024/03/02 02:18:57;;;;;;;2.78;1.27;;;6.20;99.90;;;;;;5027931;28;20089;-49
2024/03/02 02:21:23;;;;;;;2.20;1.23;;;6.10;99.90;;;;;;5030054;28;20466;-47
2024/03/02 02:23:50;;;;;;;2.75;1.10;;;6.00;99.90;;;;;;5025131;28;20487;-49
2024/03/02 02:26:15;;;;;;;2.55;1.23;;;5.80;99.90;;;;;;5029401;28;20399;-49
2024/03/02 02:28:46;;;;;;;2.10;1.30;;;5.80;99.90;;;;;;5028425;28;20032;-48
2024/03/02 02:31:12;;;;;;;7.35;1.90;;;5.80;99.90;;;;;;5024307;28;20434;-48
2024/03/02 02:33:40;;;;;;;1.83;1.08;;;5.80;99.90;;;;;;5025544;28;20072;-50
2024/03/02 02:36:05;;;;;;;2.10;1.25;;;5.80;99.90;;;;;;5015774;28;20049;-53
2024/03/02 02:38:38;;;;;;;1.85;0.90;;;5.80;99.90;;;;;;5024032;28;20458;-49
2024/03/02 02:41:03;;;;;;;2.15;0.90;;;5.80;99.90;;;;;;5022518;28;20032;-52
2024/03/02 02:43:29;;;;;;;2.60;1.00;;;5.70;99.90;;;;;;5026748;28;20037;-52
2024/03/02 02:45:54;;;;;;;2.33;1.20;;;5.70;99.90;;;;;;5021764;28;20022;-50
2024/03/02 02:48:20;;;;;;;2.33;1.10;;;5.70;99.90;;;;;;5025473;28;20035;-50
2024/03/02 02:50:46;;;;;;;1.83;1.00;;;5.70;99.90;;;;;;5018733;28;20025;-50
2024/03/02 02:53:11;;;;;;;3.63;1.10;;;5.70;99.90;;;;;;5029196;28;20482;-53
2024/03/02 02:55:40;;;;;;;2.72;1.38;;;5.60;99.90;;;;;;5029726;28;20601;-49
2024/03/02 02:58:06;;;;;;;3.35;1.40;;;5.60;99.90;;;;;;5030939;28;20104;-52
2024/03/02 03:00:32;;;;;;;6.60;1.20;;;5.60;99.90;;;;;;5029946;28;20040;-49
2024/03/02 03:02:58;;;;;;;3.22;1.17;;;5.60;99.90;;;;;;5001133;28;20026;-53
2024/03/02 03:05:23;;;;;;;4.53;1.35;;;5.50;99.90;;;;;;5028153;28;20052;-50
2024/03/02 03:07:49;;;;;;;3.13;1.15;;;5.50;99.90;;;;;;5028099;28;20033;-51
2024/03/02 03:10:16;;;;;;;2.22;1.27;;;5.40;99.90;;;;;;5027474;28;20029;-49
2024/03/02 03:12:42;;;;;;;3.45;1.13;;;5.40;99.90;;;;;;5028619;28;20025;-49
2024/03/02 03:15:09;;;;;;;6.13;1.45;;;5.30;99.90;;;;;;5030258;28;20033;-49
2024/03/02 03:17:35;;;;;;;4.03;1.35;;;5.30;99.90;;;;;;5028265;28;20076;-50
2024/03/02 03:20:03;;;;;;;5.97;1.48;;;5.20;99.90;;;;;;5027989;28;20038;-51
2024/03/02 03:22:29;;;;;;;2.53;1.00;;;5.20;99.90;;;;;;5028813;28;20056;-49
2024/03/02 03:24:55;;;;;;;1.73;0.98;;;5.10;99.90;;;;;;5027836;28;20496;-51
2024/03/02 03:27:20;;;;;;;2.22;1.13;;;5.10;99.90;;;;;;5028193;28;20029;-49
2024/03/02 03:29:46;;;;;;;1.83;1.27;;;5.10;99.90;;;;;;5029523;28;20029;-53
2024/03/02 03:32:12;;;;;;;1.95;1.30;;;5.20;99.90;;;;;;5024898;28;20068;-51
2024/03/02 03:34:37;;;;;;;2.85;1.50;;;5.30;99.90;;;;;;5026685;28;20120;-51
2024/03/02 03:37:03;;;;;;;2.40;1.10;;;5.40;99.90;;;;;;5030321;28;20041;-53
2024/03/02 03:39:29;;;;;;;7.55;1.98;;;5.50;99.90;;;;;;5030720;28;20025;-50
2024/03/02 03:41:54;;;;;;;3.75;1.38;;;5.70;99.90;;;;;;5026857;28;20022;-50
2024/03/02 03:44:20;;;;;;;2.33;1.20;;;5.70;99.90;;;;;;5026958;28;20026;-51
2024/03/02 03:46:47;;;;;;;3.15;1.67;;;5.80;99.90;;;;;;5028411;28;20072;-51
2024/03/02 03:49:12;;;;;;;2.38;1.55;;;5.80;99.90;;;;;;5029111;28;20075;-51
2024/03/02 03:51:38;;;;;;;4.00;1.70;;;5.80;99.90;;;;;;5027867;28;20037;-50
2024/03/02 03:54:03;;;;;;;3.58;1.67;;;5.70;99.90;;;;;;5028537;28;20036;-51
2024/03/02 03:56:29;;;;;;;2.60;1.33;;;5.80;99.90;;;;;;5026293;28;20036;-51
2024/03/02 03:58:54;;;;;;;5.13;1.75;;;5.80;99.90;;;;;;5026885;28;20026;-53
2024/03/02 04:01:22;;;;;;;6.95;1.95;;;5.80;99.90;;;;;;5022580;28;20053;-52
2024/03/02 04:03:47;;;;;;;4.68;2.03;;;5.90;99.90;;;;;;5023984;28;20467;-49
2024/03/02 04:06:13;;;;;;;4.47;1.70;;;6.00;99.90;;;;;;5022893;28;20152;-52
2024/03/02 04:08:41;;;;;;;5.75;1.77;;;6.00;99.90;;;;;;5030370;28;20025;-51
2024/03/02 04:11:07;;;;;;;3.40;1.60;;;6.10;99.90;;;;;;5023277;28;20483;-53
2024/03/02 04:13:33;;;;;;;3.83;1.77;;;6.20;99.90;;;;;;5023787;28;20035;-54
2024/03/02 04:15:58;;;;;;;6.53;1.95;;;6.30;99.90;;;;;;5028300;28;20116;-50
2024/03/02 04:18:24;;;;;;;4.22;2.15;;;6.30;99.90;;;;;;5026685;28;20079;-52
2024/03/02 04:20:49;;;;;;;6.20;2.03;;;6.30;99.90;;;;;;5019624;28;20032;-55
2024/03/02 04:23:15;;;;;;;3.65;1.80;;;6.30;99.90;;;;;;5026589;28;20017;-51
2024/03/02 04:25:40;;;;;;;3.50;1.58;;;6.30;99.90;;;;;;5027995;28;20048;-49
2024/03/02 04:28:06;;;;;;;4.28;1.98;;;6.20;99.90;;;;;;5023309;28;20022;-53
2024/03/02 04:30:32;;;;;;;4.07;1.67;;;6.20;99.90;;;;;;5021685;28;20071;-54
2024/03/02 04:32:57;;;;;;;5.38;2.25;;;6.10;99.90;;;;;;5019820;28;20026;-55
2024/03/02 04:35:23;;;;;;;3.10;1.92;;;6.00;99.90;;;;;;5027602;28;20498;-50
2024/03/02 04:37:49;;;;;;;4.65;1.90;;;5.90;99.90;;;;;;5025383;28;20036;-52
2024/03/02 04:40:14;;;;;;;4.38;2.05;;;5.90;99.90;;;;;;5028567;28;20049;-50
2024/03/02 04:42:40;;;;;;;5.80;2.72;;;5.80;99.90;;;;;;5026023;28;20064;-51
2024/03/02 04:45:07;;;;;;;6.97;2.00;;;5.80;99.90;;;;;;5025850;28;20039;-52
2024/03/02 04:47:32;;;;;;;4.75;2.08;;;5.70;99.90;;;;;;5023183;28;20018;-53
2024/03/02 04:49:58;;;;;;;4.63;2.47;;;5.60;99.90;;;;;;5028942;28;20030;-50
2024/03/02 04:52:23;;;;;;;4.65;2.28;;;5.60;99.90;;;;;;5025630;28;20491;-49
2024/03/02 04:57:33;;;;;;;4.68;2.45;;;5.60;99.90;;;;;;5024073;28;20507;-52
2024/03/02 04:59:59;;;;;;;4.90;2.38;;;5.50;99.90;;;;;;5024316;28;20022;-60
2024/03/02 05:02:24;;;;;;;3.92;2.35;;;5.60;99.90;;;;;;5024155;28;20025;-53
2024/03/02 05:04:50;;;;;;;6.45;2.10;;;5.60;99.90;;;;;;5023941;28;20083;-54
2024/03/02 05:07:15;;;;;;;7.88;2.08;;;5.60;99.90;;;;;;5024682;28;20479;-53
2024/03/02 05:09:42;;;;;;;5.40;2.53;;;5.50;99.90;;;;;;5025656;28;20018;-49
2024/03/02 05:14:42;;;;;;;3.50;1.92;;;5.50;99.90;;;;;;5019300;28;20037;-50
2024/03/02 05:17:08;;;;;;;3.38;1.85;;;5.50;99.90;;;;;;5022345;28;20485;-53
2024/03/02 05:19:33;;;;;;;3.53;2.08;;;5.50;99.90;;;;;;5008518;28;20054;-50
2024/03/02 05:21:59;;;;;;;5.28;2.30;;;5.50;99.90;;;;;;5024170;28;20022;-52
2024/03/02 05:24:27;;;;;;;4.18;2.22;;;5.50;99.90;;;;;;5025258;28;20048;-55
2024/03/02 05:26:52;;;;;;;5.47;2.58;;;5.40;99.90;;;;;;5024669;28;20179;-51
2024/03/02 05:29:18;;;;;;;3.63;2.00;;;5.40;99.90;;;;;;5024459;28;20666;-52
2024/03/02 05:31:44;;;;;;;6.20;2.63;;;5.30;99.90;;;;;;5021176;28;20161;-52
2024/03/02 05:34:09;;;;;;;5.75;2.58;;;5.30;99.90;;;;;;5009928;28;20044;-53
2024/03/02 05:36:35;;;;;;;4.15;2.20;;;5.20;99.90;;;;;;5022599;28;20365;-54
2024/03/02 05:39:02;;;;;;;5.90;3.00;;;5.20;99.90;;;;;;5024242;28;20069;-52
2024/03/02 05:41:27;;;;;;;7.80;2.78;;;5.20;99.90;;;;;;5023013;28;20029;-50
2024/03/02 05:43:53;;;;;;;4.60;2.53;;;5.20;99.90;;;;;;5025194;28;20395;-51
2024/03/02 05:46:18;;;;;;;4.78;2.97;;;5.20;99.90;;;;;;5024918;28;20036;-50
2024/03/02 05:48:44;;;;;;;3.30;2.22;;;5.20;99.90;;;;;;5027492;28;20542;-51
2024/03/02 05:51:10;;;;;;;8.30;2.88;;;5.20;99.90;;;;;;5027248;28;20030;-53
2024/03/02 05:53:38;;;;;;;7.65;2.80;;;5.10;99.90;;;;;;5025268;28;20033;-52
2024/03/02 05:56:04;;;;;;;5.28;3.42;;;5.10;99.90;;;;;;5019411;28;20040;-52
2024/03/02 05:59:00;;;;;;;6.78;3.05;;;5.20;99.90;;;;;;5019241;28;21744;-52
2024/03/02 06:01:18;;;;;;;6.88;2.88;;;5.20;99.90;;;;;;5024608;28;20033;-50
2024/03/02 06:03:44;;;;;;;8.95;3.10;;;5.30;99.90;;;;;;5027963;28;20033;-53
2024/03/02 06:06:09;;;;;;;5.47;2.90;;;5.30;99.90;;;;;;5026424;28;20037;-49
2024/03/02 06:08:35;;;;;;;7.53;3.13;;;5.30;99.90;;;;;;5027362;28;20068;-52
2024/03/02 06:11:01;;;;;;;4.75;2.85;;;5.30;99.90;;;;;;5025924;28;20087;-49
2024/03/02 06:13:26;;;;;;;6.30;3.05;;;5.40;99.90;;;;;;5027105;28;20025;-53
2024/03/02 06:15:52;;;;;;;6.40;3.35;;;5.40;99.90;;;;;;5027770;28;20037;-48
2024/03/02 06:18:18;;;;;;;6.45;3.17;;;5.40;99.90;;;;;;4990399;28;20542;-50
2024/03/02 06:20:43;;;;;;;4.75;2.70;;;5.40;99.90;;;;;;5026526;28;20116;-54
2024/03/02 06:23:09;;;;;;;9.43;3.42;;;5.50;99.90;;;;;;5026950;28;20018;-52
2024/03/02 06:25:34;;;;;;;7.55;3.30;;;5.50;99.90;;;;;;5022437;28;20488;-50
2024/03/02 06:28:00;;;;;;;5.32;2.80;;;5.60;99.90;;;;;;5027083;28;20100;-52
2024/03/02 06:30:25;;;;;;;5.28;2.80;;;5.70;99.90;;;;;;5027562;28;20037;-51
2024/03/02 06:32:51;;;;;;;6.85;3.28;;;5.70;99.90;;;;;;5024487;28;20036;-53
2024/03/02 06:35:16;;;;;;;6.80;3.13;;;5.70;99.90;;;;;;5024811;28;20064;-51
2024/03/02 06:37:42;;;;;;;6.03;3.30;;;5.70;99.90;;;;;;5025836;28;20026;-49
2024/03/02 06:40:08;;;;;;;6.85;3.80;;;5.70;99.90;;;;;;5025245;28;20025;-55
2024/03/02 06:42:35;;;;;;;5.55;2.50;;;5.80;99.90;;;;;;5028898;28;20384;-51
2024/03/02 06:45:01;;;;;;;6.65;3.30;;;5.80;99.90;;;;;;5024331;28;20112;-53
2024/03/02 06:47:26;;;;;;;5.88;2.88;;;5.80;99.90;;;;;;5013530;28;20083;-53
2024/03/02 06:49:53;;;;;;;5.25;2.90;;;5.90;99.90;;;;;;5022904;28;20045;-50
2024/03/02 06:52:18;;;;;;;5.22;2.78;;;6.00;99.90;;;;;;5028679;28;20068;-50
2024/03/02 06:54:44;;;;;;;6.85;3.03;;;6.00;99.90;;;;;;5021607;28;20038;-53
2024/03/02 06:57:09;;;;;;;5.65;2.50;;;6.00;99.90;;;;;;5023601;28;20067;-54
2024/03/02 06:59:35;;;;;;;4.15;2.38;;;6.20;99.90;;;;;;5021180;28;20022;-51
2024/03/02 07:02:01;;;;;;;5.75;2.95;;;6.30;99.90;;;;;;5021412;28;20150;-51
2024/03/02 07:04:27;;;;;;;5.95;2.35;;;6.40;99.90;;;;;;5023041;28;20018;-53
2024/03/02 07:06:52;;;;;;;7.40;2.67;;;6.40;99.90;;;;;;5020641;28;20038;-53
2024/03/02 07:09:22;;;;;;;5.15;2.72;;;6.40;99.90;;;;;;5027220;28;20025;-50
2024/03/02 07:11:48;;;;;;;5.05;2.20;;;6.50;99.90;;;;;;5020490;28;20029;-52
2024/03/02 07:14:13;;;;;;;5.95;2.65;;;6.60;99.90;;;;;;5027104;28;20509;-51
2024/03/02 07:16:40;;;;;;;4.55;2.40;;;6.70;99.90;;;;;;5023937;28;20034;-51
2024/03/02 07:19:06;;;;;;;4.15;2.00;;;6.80;99.90;;;;;;5011152;28;20072;-51
2024/03/02 07:21:33;;;;;;;6.03;2.20;;;6.90;99.90;;;;;;5025885;28;20107;-52
2024/03/02 07:23:59;;;;;;;3.75;1.70;;;7.00;99.90;;;;;;5024529;28;20076;-54
2024/03/02 07:26:25;;;;;;;4.47;2.17;;;7.00;99.90;;;;;;5022622;28;20057;-52
2024/03/02 07:28:51;;;;;;;5.55;1.98;;;7.00;99.90;;;;;;5026648;28;20112;-49
2024/03/02 07:31:16;;;;;;;6.25;2.25;;;7.00;99.90;;;;;;5020941;28;20041;-49
2024/03/02 07:33:45;;;;;;;4.07;2.25;;;7.00;99.90;;;;;;5018328;28;20029;-51
2024/03/02 07:36:11;;;;;;;10.70;2.05;;;6.90;99.90;;;;;;5020881;28;20029;-54
2024/03/02 07:38:36;;;;;;;6.45;2.13;;;6.90;99.90;;;;;;5026021;28;20025;-52
2024/03/02 07:41:04;;;;;;;4.85;1.95;;;7.00;99.90;;;;;;5022900;28;20026;-52
2024/03/02 07:43:30;;;;;;;4.20;1.77;;;7.10;99.90;;;;;;5024905;28;20422;-55
2024/03/02 07:45:56;;;;;;;6.47;2.55;;;7.20;99.90;;;;;;5023913;28;20092;-51
2024/03/02 07:48:22;;;;;;;7.20;2.00;;;7.40;99.90;;;;;;5025441;28;20025;-54
2024/03/02 07:50:47;;;;;;;5.57;2.17;;;7.40;99.90;;;;;;5026064;28;20561;-49
2024/03/02 07:53:14;;;;;;;4.68;2.45;;;7.60;99.90;;;;;;5027245;28;20033;-55
2024/03/02 07:55:40;;;;;;;3.97;1.55;;;7.70;99.90;;;;;;5025855;28;20029;-52
2024/03/02 07:58:06;;;;;;;3.72;1.55;;;7.80;99.90;;;;;;5028784;28;20041;-54
2024/03/02 08:00:32;;;;;;;3.13;1.88;;;8.00;99.90;;;;;;5025561;28;20022;-49
2024/03/02 08:02:58;;;;;;;6.38;2.13;;;8.10;99.90;;;;;;5025505;28;20065;-54
2024/03/02 08:05:23;;;;;;;6.63;1.80;;;8.20;99.90;;;;;;5025523;28;20034;-52
2024/03/02 08:07:52;;;;;;;3.67;1.77;;;8.30;99.90;;;;;;5026649;28;20033;-61
2024/03/02 08:10:18;;;;;;;3.33;1.55;;;8.50;99.90;;;;;;5027713;28;20086;-52
2024/03/02 08:12:44;;;;;;;4.22;1.67;;;8.60;99.90;;;;;;5024963;28;20125;-52
2024/03/02 08:15:10;;;;;;;2.90;1.27;;;8.60;99.90;;;;;;5026619;28;21024;-53
2024/03/02 08:17:35;;;;;;;4.72;1.58;;;8.70;99.90;;;;;;5026017;28;20072;-50
2024/03/02 08:20:01;;;;;;;2.88;1.40;;;8.70;99.90;;;;;;5010117;28;20484;-51
2024/03/02 08:22:27;;;;;;;2.80;1.48;;;8.80;99.90;;;;;;5037676;23;20057;-55
2024/03/02 08:24:54;;;;;;;3.83;1.48;;;8.90;99.90;;;;;;5034613;28;20022;-52
2024/03/02 08:27:20;;;;;;;5.38;1.02;;;8.90;99.90;;;;;;5033389;28;20036;-53
2024/03/02 08:29:45;;;;;;;2.38;1.10;;;9.10;99.90;;;;;;5034444;28;20029;-51
2024/03/02 08:32:11;;;;;;;3.72;1.40;;;9.10;99.90;;;;;;5030743;28;20493;-54
2024/03/02 08:34:36;;;;;;;3.10;1.20;;;9.10;99.90;;;;;;5025416;28;20478;-54
2024/03/02 08:37:02;;;;;;;2.30;1.25;;;9.20;99.90;;;;;;5025570;28;20479;-51
2024/03/02 08:39:28;;;;;;;2.17;1.20;;;9.30;99.90;;;;;;5029174;28;20108;-52
2024/03/02 08:41:54;;;;;;;2.53;1.30;;;9.40;99.90;;;;;;5027975;28;20129;-54
2024/03/02 08:44:20;;;;;;;2.75;1.20;;;9.50;99.90;;;;;;5029308;28;20039;-53
2024/03/02 08:46:45;;;;;;;7.20;1.45;;;9.60;99.90;;;;;;5027564;28;20083;-54
2024/03/02 08:49:12;;;;;;;2.97;1.30;;;9.90;99.90;;;;;;5024305;28;20041;-55
2024/03/02 08:51:37;;;;;;;2.22;0.98;;;10.10;99.90;;;;;;5029078;28;20025;-54
2024/03/02 08:54:03;;;;;;;2.35;1.27;;;10.20;99.90;;;;;;5028870;28;20127;-50
2024/03/02 08:56:30;;;;;;;3.15;1.42;;;10.40;99.90;;;;;;5028660;28;20057;-55
2024/03/02 08:58:55;;;;;;;2.75;1.70;;;10.50;99.90;;;;;;5023973;28;20017;-54
2024/03/02 09:01:21;;;;;;;3.05;1.15;;;10.60;99.90;;;;;;5029311;28;20692;-53
2024/03/02 09:03:47;;;;;;;6.55;1.35;;;10.80;99.90;;;;;;5029049;28;20472;-54
2024/03/02 09:06:13;;;;;;;6.55;1.30;;;11.00;99.90;;;;;;5022192;28;20036;-51
2024/03/02 09:08:39;;;;;;;1.42;0.93;;;11.40;99.90;;;;;;5021692;28;20490;-51
2024/03/02 09:11:06;;;;;;;2.60;1.10;;;11.70;99.90;;;;;;5028793;28;20057;-58
2024/03/02 09:13:33;;;;;;;3.15;0.90;;;12.00;99.90;;;;;;5017143;28;20036;-54
2024/03/02 09:15:58;;;;;;;1.73;0.88;;;12.20;99.90;;;;;;5019578;28;20036;-56
2024/03/02 09:18:24;;;;;;;1.58;1.05;;;12.40;99.90;;;;;;5021264;28;20025;-51
2024/03/02 09:20:49;;;;;;;1.08;0.88;;;12.50;99.90;;;;;;5003296;28;20060;-54
2024/03/02 09:23:15;;;;;;;1.58;0.80;;;12.50;99.90;;;;;;5015516;28;20025;-55
2024/03/02 09:25:41;;;;;;;1.50;0.85;;;12.30;99.90;;;;;;5018684;28;20105;-52
2024/03/02 09:28:07;;;;;;;6.13;1.00;;;12.10;99.90;;;;;;5018010;28;20095;-55
2024/03/02 09:30:33;;;;;;;1.90;0.95;;;11.90;99.90;;;;;;5014033;28;20380;-55
2024/03/02 09:32:58;;;;;;;2.30;1.02;;;12.30;99.90;;;;;;5020238;28;20083;-51
2024/03/02 09:35:24;;;;;;;2.17;1.27;;;12.90;99.90;;;;;;5021944;28;20128;-55
2024/03/02 09:37:50;;;;;;;1.13;0.73;;;13.40;99.90;;;;;;5023000;28;20033;-54
2024/03/02 09:40:16;;;;;;;3.88;1.23;;;13.60;99.90;;;;;;5022945;28;20029;-56
2024/03/02 09:42:42;;;;;;;4.57;1.52;;;13.60;99.90;;;;;;5021773;28;20495;-53
2024/03/02 09:45:09;;;;;;;2.10;1.20;;;13.70;99.90;;;;;;5022444;28;20017;-54
2024/03/02 09:47:35;;;;;;;3.33;1.40;;;13.80;99.90;;;;;;5021767;28;20052;-57
2024/03/02 09:50:00;;;;;;;2.15;1.30;;;13.70;99.90;;;;;;5018788;28;20598;-55
2024/03/02 09:52:26;;;;;;;3.85;1.10;;;13.70;99.90;;;;;;5020242;28;20108;-57
2024/03/02 09:54:52;;;;;;;4.13;1.35;;;14.00;99.90;;;;;;5019484;28;20110;-53
2024/03/02 09:57:18;;;;;;;3.10;1.27;;;14.00;99.90;;;;;;5023545;28;20084;-52
2024/03/02 09:59:45;;;;;;;3.25;1.52;;;14.10;99.90;;;;;;5024374;28;20055;-52
2024/03/02 10:02:10;;;;;;;3.17;1.40;;;14.30;99.90;;;;;;5021185;28;20037;-56
2024/03/02 10:04:36;;;;;;;2.75;1.35;;;14.40;99.90;;;;;;5020197;28;20026;-52
2024/03/02 10:07:15;;;;;;;2.90;1.20;;;14.90;99.70;;;;;;5020203;28;20018;-53
2024/03/02 10:09:42;;;;;;;5.40;2.55;;;15.00;99.10;;;;;;5025485;28;20029;-55
2024/03/02 10:12:09;;;;;;;2.65;1.50;;;15.30;99.20;;;;;;5029309;28;20075;-55
2024/03/02 10:14:35;;;;;;;4.00;1.20;;;15.60;98.00;;;;;;5023461;28;20045;-57
2024/03/02 10:17:06;;;;;;;2.17;1.30;;;15.50;98.00;;;;;;5025858;28;20041;-55
2024/03/02 10:19:34;;;;;;;2.15;1.20;;;15.30;98.30;;;;;;5016032;28;20402;-54
2024/03/02 10:22:02;;;;;;;1.60;1.27;;;15.40;98.30;;;;;;5020829;28;20040;-54
2024/03/02 10:24:38;;;;;;;2.05;1.50;;;15.00;98.40;;;;;;5028695;28;20395;-53
2024/03/02 10:27:17;;;;;;;2.92;1.73;;;14.70;98.70;;;;;;5027372;28;20093;-56
2024/03/02 10:29:45;;;;;;;1.38;1.25;;;14.50;98.90;;;;;;5029719;28;20036;-54
2024/03/02 10:32:11;;;;;;;1.85;1.17;;;14.50;99.70;;;;;;5025173;28;20120;-57
2024/03/02 10:34:39;;;;;;;1.65;1.17;;;14.30;99.40;;;;;;5031422;28;20487;-51
2024/03/02 10:37:07;;;;;;;2.50;1.45;;;14.30;99.90;;;;;;5022860;28;20029;-51
2024/03/02 10:39:35;;;;;;;1.67;1.13;;;14.20;99.90;;;;;;5020693;28;20029;-56
2024/03/02 10:42:03;;;;;;;2.33;1.55;;;14.00;99.70;;;;;;5019383;28;20033;-54
2024/03/02 10:44:30;;;;;;;4.88;1.15;;;13.80;99.90;;;;;;5024948;28;20107;-54
2024/03/02 10:46:56;;;;;;;3.38;1.00;;;13.80;99.90;;;;;;5020475;28;20479;-53
2024/03/02 10:49:24;;;;;;;2.15;0.70;;;13.80;99.90;;;;;;5025048;28;20219;-54
2024/03/02 10:51:49;;;;;;;1.90;0.70;;;13.70;99.80;;;;;;5022816;28;20044;-52
2024/03/02 10:54:15;;;;;;;2.03;0.98;;;13.70;99.90;;;;;;5025050;28;20483;-54
2024/03/02 10:56:44;;;;;;;2.20;0.80;;;13.70;99.90;;;;;;5023610;28;20034;-52
2024/03/02 10:59:12;;;;;;;3.13;1.08;;;13.60;99.90;;;;;;5023407;28;20083;-52
2024/03/02 11:01:39;;;;;;;2.40;1.10;;;13.60;99.90;;;;;;5021456;28;20053;-51
2024/03/02 11:04:08;;;;;;;0.70;0.60;;;13.50;99.90;;;;;;5022466;28;20100;-54
2024/03/02 11:06:38;;;;;;;2.72;1.73;;;13.40;99.90;;;;;;5023286;28;20037;-53
2024/03/02 11:09:10;;;;;;;24.30;8.32;;;13.30;99.90;;;;;;5030235;28;20508;-52
2024/03/02 11:11:41;;;;;;;9.63;2.75;;;13.40;99.90;;;;;;5022653;28;20052;-57
2024/03/02 11:14:11;;;;;;;11.60;5.55;;;13.50;99.90;;;;;;5008031;28;20431;-51
2024/03/02 11:16:39;;;;;;;3.53;1.27;;;13.60;99.90;;;;;;5019719;28;20038;-54
2024/03/02 11:19:15;;;;;;;3.92;1.58;;;13.60;99.90;;;;;;5022699;28;20505;-58
2024/03/02 11:21:40;;;;;;;4.95;1.63;;;13.60;99.90;;;;;;5008876;28;20088;-54
2024/03/02 11:24:22;;;;;;;2.33;0.70;;;13.60;99.90;;;;;;5003726;28;20049;-54
2024/03/02 11:26:47;;;;;;;1.65;0.70;;;13.60;99.90;;;;;;5023627;28;20034;-53
2024/03/02 11:29:35;;;;;;;4.25;0.73;;;13.60;99.90;;;;;;5001175;28;20495;-51
2024/03/02 11:32:04;;;;;;;1.95;0.55;;;13.70;99.90;;;;;;4997583;28;20042;-54
2024/03/02 11:34:31;;;;;;;3.35;1.00;;;13.70;99.90;;;;;;5021830;28;20513;-53
2024/03/02 11:36:58;;;;;;;1.13;0.60;;;13.80;99.90;;;;;;5029348;28;20030;-52
2024/03/02 11:39:25;;;;;;;4.00;0.73;;;13.70;99.90;;;;;;5022493;28;20391;-51
2024/03/02 11:41:51;;;;;;;1.67;0.80;;;13.50;99.90;;;;;;5025186;28;20391;-56
2024/03/02 11:44:17;;;;;;;2.22;0.80;;;13.40;99.90;;;;;;5023179;28;20129;-51
2024/03/02 11:46:45;;;;;;;1.95;1.08;;;13.40;99.90;;;;;;5019042;28;20041;-53
2024/03/02 11:49:14;;;;;;;1.27;0.70;;;13.40;99.90;;;;;;5019591;28;20040;-50
2024/03/02 11:52:00;;;;;;;1.60;0.70;;;13.50;99.90;;;;;;5017816;28;20037;-53
2024/03/02 11:54:27;;;;;;;2.53;0.88;;;13.60;99.90;;;;;;5026420;28;20025;-53
2024/03/02 11:56:54;;;;;;;0.90;0.80;;;13.70;99.90;;;;;;5024315;28;20042;-51
2024/03/02 11:59:20;;;;;;;3.20;1.38;;;13.70;99.90;;;;;;5029471;28;20037;-56
2024/03/02 12:01:48;;;;;;;2.60;1.20;;;13.80;99.90;;;;;;5027071;28;20029;-54
2024/03/02 12:04:14;;;;;;;5.47;1.55;;;13.80;99.90;;;;;;5028789;28;20074;-51
2024/03/02 12:06:39;;;;;;;3.47;1.15;;;13.80;99.90;;;;;;5030227;28;20343;-53
2024/03/02 12:09:05;;;;;;;3.03;0.90;;;13.80;99.90;;;;;;5027900;28;20038;-55
2024/03/02 12:11:30;;;;;;;3.63;1.55;;;13.70;99.90;;;;;;5026320;28;20021;-54
2024/03/02 12:13:57;;;;;;;8.80;3.25;;;13.70;99.90;;;;;;5026581;28;20030;-55
2024/03/02 12:16:26;;;;;;;1.52;1.10;;;13.70;99.90;;;;;;5027542;28;20040;-57
2024/03/02 12:18:52;;;;;;;1.42;0.70;;;13.70;99.90;;;;;;4976565;28;20028;-56
2024/03/02 12:21:18;;;;;;;0.73;0.60;;;13.70;99.90;;;;;;5009704;28;20058;-53
2024/03/02 12:23:44;;;;;;;1.20;0.88;;;13.60;99.90;;;;;;5025992;28;20021;-55
2024/03/02 12:26:09;;;;;;;2.05;0.93;;;13.70;99.90;;;;;;5029009;28;20048;-54
2024/03/02 12:28:35;;;;;;;2.38;0.98;;;13.80;99.90;;;;;;5034171;28;20479;-55
2024/03/02 12:31:00;;;;;;;1.25;0.80;;;13.80;99.90;;;;;;5027813;28;20033;-51
2024/03/02 12:33:27;;;;;;;1.52;0.80;;;13.80;99.90;;;;;;5027917;28;20033;-51
2024/03/02 12:35:52;;;;;;;1.77;1.05;;;13.90;99.90;;;;;;5022896;28;20060;-51
2024/03/02 12:38:19;;;;;;;0.63;0.57;;;13.80;99.90;;;;;;5018029;28;20034;-51
2024/03/02 12:40:47;;;;;;;1.20;0.63;;;13.60;99.90;;;;;;5023692;28;20099;-54
2024/03/02 12:43:12;;;;;;;2.22;0.60;;;13.60;99.90;;;;;;5018278;28;20502;-57
2024/03/02 12:45:38;;;;;;;1.65;0.80;;;13.50;99.90;;;;;;5028696;28;20025;-54
2024/03/02 12:48:05;;;;;;;0.77;0.47;;;13.60;99.90;;;;;;5022728;28;20040;-51
2024/03/02 12:50:31;;;;;;;1.02;0.70;;;13.60;99.90;;;;;;5026079;28;20041;-53
2024/03/02 12:52:56;;;;;;;0.82;0.52;;;13.70;99.90;;;;;;5019546;28;20124;-55
2024/03/02 12:55:23;;;;;;;0.70;0.70;;;13.80;99.90;;;;;;5017596;28;20510;-51
2024/03/02 12:57:51;;;;;;;1.33;0.60;;;13.90;99.90;;;;;;5023936;28;20034;-53